createdAt,value
2023-04-22T00:00:49.436Z,45.47
2023-04-22T00:03:19.231Z,45.96
2023-04-22T00:05:47.489Z,46.01
2023-04-22T00:08:14.846Z,46.30
2023-04-22T00:10:42.374Z,47.24
2023-04-22T00:13:09.549Z,47.20
2023-04-22T00:15:37.100Z,47.27
2023-04-22T00:18:04.478Z,48.07
2023-04-22T00:20:33.047Z,47.24
2023-04-22T00:23:00.355Z,46.46
2023-04-22T00:25:27.803Z,46.58
2023-04-22T00:27:54.998Z,46.65
2023-04-22T00:30:22.567Z,46.79
2023-04-22T00:32:49.793Z,46.84
2023-04-22T00:35:17.329Z,46.54
2023-04-22T00:37:44.521Z,47.02
2023-04-22T00:40:12.361Z,47.11
2023-04-22T00:42:39.655Z,46.59
2023-04-22T00:45:10.967Z,46.83
2023-04-22T00:47:38.650Z,46.00
2023-04-22T00:50:07.007Z,46.42
2023-04-22T00:52:34.364Z,46.48
2023-04-22T00:55:02.403Z,46.63
2023-04-22T00:57:34.791Z,46.74
2023-04-22T01:00:02.714Z,46.59
2023-04-22T01:02:30.194Z,47.51
2023-04-22T01:04:59.267Z,48.18
2023-04-22T01:07:26.512Z,48.33
2023-04-22T01:09:54.065Z,48.28
2023-04-22T01:12:21.275Z,48.04
2023-04-22T01:14:48.974Z,47.78
2023-04-22T01:17:16.977Z,47.43
2023-04-22T01:19:44.550Z,47.23
2023-04-22T01:22:13.681Z,47.79
2023-04-22T01:24:41.669Z,47.61
2023-04-22T01:27:09.812Z,48.59
2023-04-22T01:29:38.851Z,48.47
2023-04-22T01:32:06.830Z,48.45
2023-04-22T01:34:34.751Z,48.27
2023-04-22T01:37:02.079Z,48.41
2023-04-22T01:39:30.353Z,48.93
2023-04-22T01:41:58.579Z,49.88
2023-04-22T01:44:26.862Z,50.25
2023-04-22T01:46:54.437Z,50.42
2023-04-22T01:49:21.924Z,49.92
2023-04-22T01:51:50.893Z,48.79
2023-04-22T01:54:18.537Z,48.29
2023-04-22T01:56:55.624Z,48.20
2023-04-22T01:59:23.355Z,47.97
2023-04-22T02:01:50.897Z,49.50
2023-04-22T02:04:19.255Z,50.46
2023-04-22T02:06:46.450Z,50.21
2023-04-22T02:09:14.007Z,51.78
2023-04-22T02:11:41.299Z,51.36
2023-04-22T02:14:08.812Z,51.81
2023-04-22T02:16:35.997Z,53.46
2023-04-22T02:19:03.467Z,52.81
2023-04-22T02:21:34.288Z,53.30
2023-04-22T02:24:01.857Z,53.13
2023-04-22T02:26:29.196Z,52.88
2023-04-22T02:28:56.677Z,53.60
2023-04-22T02:31:25.674Z,54.29
2023-04-22T02:33:53.329Z,54.52
2023-04-22T02:36:20.564Z,54.60
2023-04-22T02:38:49.358Z,55.24
2023-04-22T02:41:16.709Z,55.04
2023-04-22T02:43:46.334Z,56.69
2023-04-22T02:46:16.364Z,56.33
2023-04-22T02:48:44.092Z,56.84
2023-04-22T02:51:11.956Z,57.03
2023-04-22T02:53:39.463Z,58.32
2023-04-22T02:56:07.177Z,57.86
2023-04-22T02:58:34.793Z,58.57
2023-04-22T03:01:02.059Z,58.34
2023-04-22T03:03:29.778Z,58.29
2023-04-22T03:05:57.096Z,59.22
2023-04-22T03:08:25.820Z,58.60
2023-04-22T03:10:53.031Z,58.62
2023-04-22T03:13:20.648Z,58.61
2023-04-22T03:15:47.922Z,58.62
2023-04-22T03:18:16.203Z,58.86
2023-04-22T03:20:44.527Z,58.79
2023-04-22T03:23:12.018Z,59.07
2023-04-22T03:25:39.354Z,59.50
2023-04-22T03:28:07.801Z,58.87
2023-04-22T03:30:35.332Z,59.45
2023-04-22T03:33:02.874Z,59.31
2023-04-22T03:35:43.658Z,60.30
2023-04-22T03:38:12.253Z,59.75
2023-04-22T03:40:39.495Z,59.56
2023-04-22T03:43:17.969Z,59.36
2023-04-22T03:45:53.822Z,58.88
2023-04-22T03:48:25.343Z,58.48
2023-04-22T03:50:53.953Z,55.79
2023-04-22T03:55:58.513Z,49.67
2023-04-22T03:58:26.661Z,48.83
2023-04-22T04:00:58.227Z,46.92
2023-04-22T04:03:28.001Z,45.08
2023-04-22T04:05:57.584Z,44.10
2023-04-22T04:08:25.198Z,45.29
2023-04-22T04:10:52.533Z,47.30
2023-04-22T04:13:20.171Z,46.79
2023-04-22T04:16:16.864Z,44.71
2023-04-22T04:18:50.977Z,43.04
2023-04-22T04:21:19.601Z,41.98
2023-04-22T04:23:51.151Z,40.45
2023-04-22T04:26:22.423Z,37.75
2023-04-22T04:28:54.151Z,35.15
2023-04-22T04:31:21.988Z,33.29
2023-04-22T04:33:49.550Z,34.36
2023-04-22T04:36:16.796Z,33.47
2023-04-22T04:38:44.795Z,33.60
2023-04-22T04:41:12.631Z,32.35
2023-04-22T04:43:40.786Z,31.44
2023-04-22T04:46:18.389Z,29.79
2023-04-22T04:48:48.735Z,28.23
2023-04-22T04:51:18.178Z,27.57
2023-04-22T04:53:52.726Z,26.29
2023-04-22T04:56:19.989Z,25.62
2023-04-22T04:58:48.236Z,25.74
2023-04-22T05:01:22.749Z,23.73
2023-04-22T05:03:51.436Z,22.80
2023-04-22T05:06:20.495Z,22.17
2023-04-22T05:08:52.876Z,21.65
2023-04-22T05:11:20.876Z,21.05
2023-04-22T05:13:51.297Z,20.72
2023-04-22T05:16:25.012Z,21.11
2023-04-22T05:18:53.011Z,19.86
2023-04-22T05:21:20.514Z,19.67
2023-04-22T05:23:48.284Z,19.83
2023-04-22T05:26:15.843Z,21.20
2023-04-22T05:28:44.588Z,23.97
2023-04-22T05:31:11.982Z,25.33
2023-04-22T05:33:39.477Z,27.70
2023-04-22T05:36:07.072Z,29.30
2023-04-22T05:38:35.599Z,32.24
2023-04-22T05:41:02.901Z,34.38
2023-04-22T05:43:30.737Z,36.42
2023-04-22T05:46:05.329Z,37.48
2023-04-22T05:48:35.551Z,36.75
2023-04-22T05:51:07.157Z,35.14
2023-04-22T05:53:34.803Z,35.88
2023-04-22T05:56:03.070Z,35.21
2023-04-22T05:58:30.598Z,34.02
2023-04-22T06:01:02.473Z,28.53
2023-04-22T06:03:47.288Z,24.47
2023-04-22T06:06:14.756Z,23.36
2023-04-22T06:08:42.674Z,21.41
2023-04-22T06:11:11.158Z,21.05
2023-04-22T06:13:38.726Z,20.20
2023-04-22T06:18:39.032Z,17.59
2023-04-22T06:21:11.134Z,17.94
2023-04-22T06:23:38.726Z,16.88
2023-04-22T06:26:06.057Z,18.84
2023-04-22T06:28:34.392Z,18.87
2023-04-22T06:31:06.306Z,18.17
2023-04-22T06:33:33.871Z,19.54
2023-04-22T06:36:02.463Z,19.00
2023-04-22T06:38:31.910Z,18.20
2023-04-22T06:41:17.638Z,18.24
2023-04-22T06:43:49.841Z,16.83
2023-04-22T06:46:50.312Z,17.69
2023-04-22T06:49:45.004Z,18.00
2023-04-22T06:52:35.917Z,17.73
2023-04-22T06:55:03.817Z,16.26
2023-04-22T06:57:31.693Z,15.33
2023-04-22T06:59:59.359Z,15.56
2023-04-22T07:02:28.307Z,17.12
2023-04-22T07:04:55.829Z,17.79
2023-04-22T07:07:24.271Z,17.88
2023-04-22T07:09:51.781Z,15.70
2023-04-22T07:12:19.037Z,14.96
2023-04-22T07:14:46.881Z,14.36
2023-04-22T07:17:14.108Z,14.22
2023-04-22T07:19:41.890Z,14.63
2023-04-22T07:22:09.363Z,15.93
2023-04-22T07:24:37.616Z,16.31
2023-04-22T07:27:04.964Z,17.40
2023-04-22T07:29:32.529Z,14.99
2023-04-22T07:31:59.778Z,14.72
2023-04-22T07:34:27.348Z,15.19
2023-04-22T07:36:54.540Z,16.21
2023-04-22T07:39:22.995Z,16.43
2023-04-22T07:41:50.990Z,15.20
2023-04-22T07:44:21.667Z,15.18
2023-04-22T07:46:50.369Z,15.40
2023-04-22T07:49:18.004Z,14.03
2023-04-22T07:51:45.712Z,13.14
2023-04-22T07:54:13.192Z,12.40
2023-04-22T07:56:40.424Z,12.39
2023-04-22T07:59:08.306Z,100.00
2023-04-22T08:01:35.586Z,15.70
2023-04-22T08:04:03.395Z,15.42
2023-04-22T08:06:32.060Z,14.80
2023-04-22T08:08:59.772Z,17.51
2023-04-22T08:11:27.005Z,17.89
2023-04-22T08:13:54.464Z,18.28
2023-04-22T08:16:21.979Z,19.79
2023-04-22T08:18:49.542Z,19.79
2023-04-22T08:21:16.681Z,20.48
2023-04-22T08:23:44.222Z,20.85
2023-04-22T08:26:15.181Z,20.97
2023-04-22T08:28:42.748Z,22.88
2023-04-22T08:31:11.959Z,22.27
2023-04-22T08:33:42.858Z,21.42
2023-04-22T08:36:11.226Z,20.42
2023-04-22T08:38:38.983Z,21.58
2023-04-22T08:41:07.181Z,21.72
2023-04-22T08:43:35.648Z,23.11
2023-04-22T08:46:02.880Z,20.75
2023-04-22T08:48:30.831Z,19.53
2023-04-22T08:50:58.532Z,19.32
2023-04-22T08:53:26.347Z,20.81
2023-04-22T08:55:56.517Z,19.19
2023-04-22T08:58:24.399Z,19.89
2023-04-22T09:00:52.079Z,22.00
2023-04-22T09:03:20.627Z,20.31
2023-04-22T09:05:51.951Z,21.51
2023-04-22T09:08:20.347Z,21.97
2023-04-22T09:10:47.878Z,22.29
2023-04-22T09:13:16.993Z,22.70
2023-04-22T09:15:44.241Z,21.94
2023-04-22T09:18:19.565Z,22.50
2023-04-22T09:20:54.415Z,22.50
2023-04-22T09:23:22.645Z,24.56
2023-04-22T09:25:50.171Z,23.51
2023-04-22T09:28:23.625Z,25.84
2023-04-22T09:30:50.824Z,28.23
2023-04-22T09:33:18.445Z,25.86
2023-04-22T09:35:45.805Z,24.70
2023-04-22T09:38:13.687Z,24.69
2023-04-22T09:40:44.523Z,23.70
2023-04-22T09:43:12.397Z,26.17
2023-04-22T09:45:41.834Z,25.08
2023-04-22T09:48:18.503Z,24.55
2023-04-22T09:50:48.293Z,25.47
2023-04-22T09:53:18.422Z,26.18
2023-04-22T09:55:48.978Z,27.39
2023-04-22T09:58:18.770Z,26.85
2023-04-22T10:00:54.893Z,28.21
2023-04-22T10:03:23.101Z,25.76
2023-04-22T10:05:50.668Z,26.73
2023-04-22T10:08:18.767Z,27.15
2023-04-22T10:10:46.502Z,28.61
2023-04-22T10:13:14.134Z,29.46
2023-04-22T10:15:53.080Z,29.10
2023-04-22T10:18:24.508Z,27.27
2023-04-22T10:20:53.612Z,27.40
2023-04-22T10:23:24.171Z,26.89
2023-04-22T10:25:54.697Z,28.46
2023-04-22T10:28:23.816Z,27.60
2023-04-22T10:30:51.212Z,31.23
2023-04-22T10:33:21.874Z,33.59
2023-04-22T10:36:08.730Z,33.08
2023-04-22T10:38:55.225Z,32.58
2023-04-22T10:41:29.510Z,29.64
2023-04-22T10:44:08.093Z,32.58
2023-04-22T10:46:37.520Z,29.89
2023-04-22T10:49:11.819Z,29.65
2023-04-22T10:51:43.557Z,27.96
2023-04-22T10:54:37.150Z,27.93
2023-04-22T10:57:09.554Z,27.76
2023-04-22T10:59:49.523Z,29.71
2023-04-22T11:02:18.512Z,30.73
2023-04-22T11:04:46.395Z,31.08
2023-04-22T11:07:17.077Z,30.48
2023-04-22T11:09:46.451Z,33.60
2023-04-22T11:12:35.413Z,36.38
2023-04-22T11:15:06.317Z,35.16
2023-04-22T11:17:34.348Z,36.31
2023-04-22T11:20:02.976Z,38.24
2023-04-22T11:22:38.289Z,38.53
2023-04-22T11:25:06.779Z,39.82
2023-04-22T11:27:34.003Z,39.59
2023-04-22T11:30:13.000Z,39.63
2023-04-22T11:32:48.010Z,39.50
2023-04-22T11:35:19.663Z,40.17
2023-04-22T11:37:49.791Z,40.40
2023-04-22T11:42:50.896Z,38.98
2023-04-22T11:45:18.623Z,40.67
2023-04-22T11:47:50.400Z,40.85
2023-04-22T11:50:22.196Z,38.74
2023-04-22T11:53:13.168Z,40.32
2023-04-22T11:55:42.076Z,41.95
2023-04-22T11:58:17.721Z,41.82
2023-04-22T12:00:50.486Z,41.19
2023-04-22T12:03:24.349Z,41.47
2023-04-22T12:06:01.268Z,41.66
2023-04-22T12:08:39.805Z,40.88
2023-04-22T12:11:10.637Z,41.03
2023-04-22T12:13:37.854Z,41.42
2023-04-22T12:16:10.138Z,42.27
2023-04-22T12:18:40.534Z,42.03
2023-04-22T12:21:07.994Z,43.81
2023-04-22T12:23:42.572Z,44.47
2023-04-22T12:26:10.757Z,43.29
2023-04-22T12:28:39.255Z,44.42
2023-04-22T12:31:07.713Z,44.00
2023-04-22T12:33:36.442Z,43.49
2023-04-22T12:36:05.082Z,42.47
2023-04-22T12:38:32.579Z,43.50
2023-04-22T12:41:00.257Z,43.67
2023-04-22T12:43:27.481Z,43.95
2023-04-22T12:45:55.190Z,43.12
2023-04-22T12:48:22.509Z,44.30
2023-04-22T12:50:50.165Z,45.08
2023-04-22T12:53:17.477Z,46.06
2023-04-22T12:55:46.204Z,44.05
2023-04-22T12:58:13.562Z,44.26
2023-04-22T13:00:41.167Z,44.75
2023-04-22T13:03:08.494Z,42.60
2023-04-22T13:05:36.327Z,47.54
2023-04-22T13:08:07.760Z,45.45
2023-04-22T13:10:36.184Z,45.07
2023-04-22T13:15:39.045Z,44.70
2023-04-22T13:18:06.648Z,45.18
2023-04-22T13:20:34.310Z,44.25
2023-04-22T13:23:02.461Z,43.57
2023-04-22T13:25:30.086Z,43.90
2023-04-22T13:27:57.273Z,45.45
2023-04-22T13:30:24.881Z,43.79
2023-04-22T13:32:52.164Z,43.79
2023-04-22T13:35:19.826Z,44.43
2023-04-22T13:37:47.235Z,44.50
2023-04-22T13:40:15.413Z,44.86
2023-04-22T13:42:44.460Z,46.25
2023-04-22T13:45:12.035Z,46.16
2023-04-22T13:47:39.242Z,45.84
2023-04-22T13:50:07.656Z,46.94
2023-04-22T13:52:35.300Z,45.32
2023-04-22T13:55:04.139Z,45.72
2023-04-22T13:57:32.120Z,46.71
2023-04-22T14:00:00.071Z,45.95
2023-04-22T14:02:27.433Z,45.89
2023-04-22T14:04:55.031Z,45.28
2023-04-22T14:07:22.298Z,47.51
2023-04-22T14:09:49.736Z,46.70
2023-04-22T14:12:17.042Z,48.00
2023-04-22T14:14:44.718Z,47.45
2023-04-22T14:17:11.987Z,47.54
2023-04-22T14:19:40.206Z,48.16
2023-04-22T14:22:07.772Z,47.20
2023-04-22T14:24:35.259Z,47.61
2023-04-22T14:27:02.608Z,47.81
2023-04-22T14:29:31.032Z,44.99
2023-04-22T14:31:58.585Z,46.58
2023-04-22T14:34:27.386Z,46.64
2023-04-22T14:36:54.798Z,48.58
2023-04-22T14:39:22.379Z,50.94
2023-04-22T14:41:49.665Z,51.86
2023-04-22T14:44:17.387Z,50.33
2023-04-22T14:46:45.340Z,50.51
2023-04-22T14:49:12.831Z,50.11
2023-04-22T14:51:40.140Z,49.52
2023-04-22T14:54:07.775Z,49.75
2023-04-22T14:56:35.141Z,50.92
2023-04-22T14:59:02.679Z,51.26
2023-04-22T15:01:31.158Z,50.59
2023-04-22T15:03:59.084Z,51.11
2023-04-22T15:06:27.634Z,50.02
2023-04-22T15:08:55.956Z,50.90
2023-04-22T15:11:23.253Z,51.85
2023-04-22T15:13:50.927Z,49.83
2023-04-22T15:16:18.264Z,51.59
2023-04-22T15:18:45.802Z,54.03
2023-04-22T15:21:13.081Z,53.88
2023-04-22T15:23:40.759Z,53.30
2023-04-22T15:26:07.979Z,53.16
2023-04-22T15:28:35.813Z,54.38
2023-04-22T15:31:03.374Z,54.20
2023-04-22T15:33:31.042Z,53.65
2023-04-22T15:35:58.368Z,54.10
2023-04-22T15:38:25.997Z,53.55
2023-04-22T15:40:53.216Z,52.23
2023-04-22T15:43:20.723Z,52.69
2023-04-22T15:45:47.948Z,53.72
2023-04-22T15:48:15.614Z,56.33
2023-04-22T15:50:42.860Z,53.84
2023-04-22T15:53:10.480Z,53.73
2023-04-22T15:55:38.056Z,54.90
2023-04-22T15:58:05.511Z,55.95
2023-04-22T16:00:32.706Z,56.23
2023-04-22T16:03:00.380Z,57.92
2023-04-22T16:05:28.793Z,55.64
2023-04-22T16:07:56.553Z,57.27
2023-04-22T16:10:26.340Z,55.57
2023-04-22T16:12:53.958Z,56.49
2023-04-22T16:15:23.634Z,58.02
2023-04-22T16:17:51.408Z,58.03
2023-04-22T16:20:18.688Z,58.52
2023-04-22T16:22:46.335Z,59.33
2023-04-22T16:25:13.573Z,58.52
2023-04-22T16:27:41.171Z,59.01
2023-04-22T16:30:08.869Z,59.75
2023-04-22T16:32:36.567Z,60.79
2023-04-22T16:35:04.508Z,60.45
2023-04-22T16:37:34.174Z,60.25
2023-04-22T16:40:01.520Z,59.57
2023-04-22T16:42:29.448Z,59.23
2023-04-22T16:44:56.659Z,59.81
2023-04-22T16:47:24.428Z,60.74
2023-04-22T16:49:51.652Z,60.32
2023-04-22T16:52:19.358Z,60.45
2023-04-22T16:54:46.618Z,59.97
2023-04-22T16:57:14.192Z,59.84
2023-04-22T16:59:41.698Z,60.32
2023-04-22T17:02:09.500Z,62.00
2023-04-22T17:04:36.877Z,63.02
2023-04-22T17:07:04.865Z,60.91
2023-04-22T17:09:33.177Z,61.74
2023-04-22T17:12:01.737Z,62.14
2023-04-22T17:14:29.039Z,61.04
2023-04-22T17:16:56.682Z,60.49
2023-04-22T17:19:24.992Z,59.93
2023-04-22T17:21:52.829Z,60.52
2023-04-22T17:24:22.293Z,63.24
2023-04-22T17:26:49.972Z,62.04
2023-04-22T17:29:21.549Z,61.84
2023-04-22T17:31:50.744Z,63.55
2023-04-22T17:34:18.057Z,64.21
2023-04-22T17:36:45.687Z,63.86
2023-04-22T17:39:14.038Z,64.61
2023-04-22T17:41:41.679Z,64.95
2023-04-22T17:44:09.340Z,66.35
2023-04-22T17:46:36.912Z,66.75
2023-04-22T17:49:04.265Z,66.92
2023-04-22T17:51:32.478Z,68.17
2023-04-22T17:54:01.136Z,68.58
2023-04-22T17:56:28.711Z,70.15
2023-04-22T17:58:55.897Z,70.50
2023-04-22T18:01:23.447Z,69.97
2023-04-22T18:03:51.241Z,70.31
2023-04-22T18:06:18.988Z,70.87
2023-04-22T18:08:46.282Z,70.91
2023-04-22T18:11:14.088Z,72.08
2023-04-22T18:13:41.361Z,73.91
2023-04-22T18:16:09.002Z,74.89
2023-04-22T18:18:36.500Z,75.72
2023-04-22T18:21:04.116Z,75.49
2023-04-22T18:23:31.333Z,76.01
2023-04-22T18:25:58.767Z,77.64
2023-04-22T18:28:26.039Z,81.52
2023-04-22T18:30:53.569Z,83.12
2023-04-22T18:33:20.865Z,82.77
2023-04-22T18:35:48.442Z,81.60
2023-04-22T18:38:15.713Z,81.98
2023-04-22T18:40:43.242Z,82.89
2023-04-22T18:43:10.598Z,84.23
2023-04-22T18:45:38.106Z,84.54
2023-04-22T18:48:05.579Z,86.87
2023-04-22T18:50:33.053Z,85.61
2023-04-22T18:53:00.229Z,85.82
2023-04-22T18:55:27.742Z,85.64
2023-04-22T18:57:55.134Z,86.04
2023-04-22T19:00:22.754Z,88.58
2023-04-22T19:02:50.347Z,88.69
2023-04-22T19:05:18.207Z,89.48
2023-04-22T19:07:45.689Z,89.76
2023-04-22T19:10:13.203Z,90.57
2023-04-22T19:12:40.539Z,89.43
2023-04-22T19:15:08.824Z,91.40
2023-04-22T19:17:36.140Z,91.06
2023-04-22T19:20:05.337Z,89.90
2023-04-22T19:22:32.726Z,92.11
2023-04-22T19:25:01.139Z,92.71
2023-04-22T19:27:28.641Z,91.27
2023-04-22T19:29:56.177Z,91.95
2023-04-22T19:32:23.519Z,92.00
2023-04-22T19:34:51.104Z,91.66
2023-04-22T19:37:18.628Z,92.12
2023-04-22T19:39:46.170Z,94.20
2023-04-22T19:42:13.470Z,100.00
2023-04-22T19:44:46.793Z,99.70
2023-04-22T19:47:15.356Z,99.46
2023-04-22T19:49:43.307Z,96.88
2023-04-22T19:52:11.898Z,96.50
2023-04-22T19:54:41.510Z,99.01
2023-04-22T19:57:11.600Z,98.36
2023-04-22T19:59:42.572Z,99.36
2023-04-22T20:02:10.403Z,100.00
2023-04-22T20:04:38.420Z,100.00
2023-04-22T20:07:07.134Z,95.53
2023-04-22T20:09:35.268Z,88.64
2023-04-22T20:12:03.493Z,85.91
2023-04-22T20:14:32.138Z,81.27
2023-04-22T20:16:59.541Z,80.14
2023-04-22T20:19:28.449Z,77.31
2023-04-22T20:21:57.416Z,78.95
2023-04-22T20:24:27.512Z,78.26
2023-04-22T20:26:56.366Z,76.05
2023-04-22T20:29:24.306Z,77.01
2023-04-22T20:31:51.824Z,77.04
2023-04-22T20:34:19.598Z,77.69
2023-04-22T20:36:47.216Z,77.33
2023-04-22T20:39:15.763Z,77.10
2023-04-22T20:41:43.393Z,76.92
2023-04-22T20:44:10.931Z,77.37
2023-04-22T20:46:38.950Z,77.11
2023-04-22T20:49:07.173Z,77.43
2023-04-22T20:51:34.412Z,78.29
2023-04-22T20:54:01.904Z,77.18
2023-04-22T20:56:29.073Z,76.59
2023-04-22T20:58:56.573Z,75.76
2023-04-22T21:01:24.491Z,74.82
2023-04-22T21:03:52.989Z,74.60
2023-04-22T21:06:21.303Z,75.43
2023-04-22T21:08:49.691Z,73.76
2023-04-22T21:11:17.653Z,72.69
2023-04-22T21:13:45.487Z,72.47
2023-04-22T21:16:15.763Z,71.72
2023-04-22T21:18:44.694Z,71.40
2023-04-22T21:21:14.082Z,71.24
2023-04-22T21:23:42.293Z,69.91
2023-04-22T21:26:10.638Z,69.88
2023-04-22T21:28:39.226Z,69.23
2023-04-22T21:31:07.031Z,68.55
2023-04-22T21:33:34.647Z,67.86
2023-04-22T21:36:02.056Z,67.63
2023-04-22T21:38:29.623Z,66.91
2023-04-22T21:40:56.882Z,66.81
2023-04-22T21:43:24.336Z,66.27
2023-04-22T21:45:51.555Z,65.62
2023-04-22T21:48:19.016Z,65.19
2023-04-22T21:50:46.235Z,65.17
2023-04-22T21:53:13.865Z,64.79
2023-04-22T21:55:41.122Z,64.15
2023-04-22T21:58:08.701Z,65.37
2023-04-22T22:00:37.798Z,65.72
2023-04-22T22:03:06.304Z,64.31
2023-04-22T22:05:33.746Z,65.49
2023-04-22T22:08:01.912Z,64.88
2023-04-22T22:10:29.291Z,65.32
2023-04-22T22:12:56.796Z,64.85
2023-04-22T22:15:23.969Z,65.30
2023-04-22T22:17:52.165Z,64.82
2023-04-22T22:20:22.312Z,65.68
2023-04-22T22:22:49.855Z,65.62
2023-04-22T22:25:17.221Z,66.34
2023-04-22T22:27:49.391Z,66.31
2023-04-22T22:32:46.525Z,66.23
2023-04-22T22:35:13.908Z,65.63
2023-04-22T22:37:41.444Z,65.64
2023-04-22T22:40:09.197Z,65.15
2023-04-22T22:42:36.674Z,64.33
2023-04-22T22:45:05.313Z,64.17
2023-04-22T22:47:33.220Z,63.26
2023-04-22T22:50:00.627Z,62.75
2023-04-22T22:52:28.255Z,62.15
2023-04-22T22:54:55.570Z,62.22
2023-04-22T22:57:23.170Z,61.77
2023-04-22T22:59:50.687Z,61.66
2023-04-22T23:02:18.476Z,60.76
2023-04-22T23:04:46.227Z,60.65
2023-04-22T23:07:14.797Z,60.41
2023-04-22T23:09:42.191Z,59.99
2023-04-22T23:12:09.716Z,59.14
2023-04-22T23:14:36.900Z,57.67
2023-04-22T23:17:04.519Z,57.68
2023-04-22T23:19:32.662Z,57.17
2023-04-22T23:22:01.063Z,57.00
2023-04-22T23:24:28.435Z,56.68
2023-04-22T23:26:57.398Z,56.14
2023-04-22T23:29:24.930Z,55.61
2023-04-22T23:31:52.959Z,55.07
2023-04-22T23:34:23.950Z,54.98
2023-04-22T23:36:52.920Z,54.60
2023-04-22T23:39:20.298Z,54.39
2023-04-22T23:41:47.756Z,54.59
2023-04-22T23:44:15.071Z,54.05
2023-04-22T23:46:42.768Z,53.69
2023-04-22T23:49:10.034Z,53.98
2023-04-22T23:51:38.368Z,54.41
2023-04-22T23:54:05.726Z,54.27
2023-04-22T23:56:33.522Z,54.65
2023-04-22T23:59:00.923Z,54.38
